< < Back
Terminal Aerodrome Forecast


Current Version              Previous Versions:   1  2  3  4  5  6  7  8  9  

Terminal Aerodrome Forecast

193
FTUS44 KBMX 221100
TAFTCL
TAF
KTCL 221130Z 2212/2312 36006KT P6SM BKN050 BKN100
     FM221430 01009KT P6SM SKC
     FM221600 02010G17KT P6SM SKC
     FM230100 02003KT P6SM SKC=



Latest METAR

772
SAUS70 KWBC 221200 RRO
MTRTCL
METAR KTCL 221153Z 01007KT 10SM BKN110 20/13 A3007 RMK AO2 SLP179 60018
70018 T02000133 10250 20200 51015


USA.gov is the U.S. government's official web portal to all federal, state and local government web resources and services.